createdAt,value
2022-08-26T00:00:58.673Z,100855.84
2022-08-26T00:06:00.846Z,100856.25
2022-08-26T00:11:03.359Z,100855.56
2022-08-26T00:16:07.092Z,100864.34
2022-08-26T00:21:11.130Z,100864.22
2022-08-26T00:26:13.704Z,100870.34
2022-08-26T00:31:15.794Z,100868.75
2022-08-26T00:36:20.327Z,100864.63
2022-08-26T00:41:22.518Z,100881.56
2022-08-26T00:46:30.086Z,100872.59
2022-08-26T00:51:36.326Z,100878.84
2022-08-26T00:56:49.331Z,100882.56
2022-08-26T01:01:51.846Z,100878.84
2022-08-26T01:06:55.197Z,100885.13
2022-08-26T01:11:59.515Z,100888.09
2022-08-26T01:17:05.058Z,100883.53
2022-08-26T01:22:14.559Z,100881.84
2022-08-26T01:27:20.045Z,100893.63
2022-08-26T01:32:23.385Z,100889.94
2022-08-26T01:37:32.962Z,100889.78
2022-08-26T01:42:34.881Z,100894.88
2022-08-26T01:47:38.828Z,100895.59
2022-08-26T01:52:45.356Z,100900.28
2022-08-26T01:57:56.222Z,100896.47
2022-08-26T02:03:17.108Z,100900.88
2022-08-26T02:08:25.513Z,100900.47
2022-08-26T02:13:31.635Z,100906.16
2022-08-26T02:18:37.392Z,100911.94
2022-08-26T02:23:40.091Z,100913.41
2022-08-26T02:28:56.581Z,100914.50
2022-08-26T02:34:13.429Z,100914.38
2022-08-26T02:39:22.133Z,100914.25
2022-08-26T02:44:24.228Z,100911.84
2022-08-26T02:49:29.065Z,100909.97
2022-08-26T02:54:30.912Z,100911.78
2022-08-26T02:59:32.794Z,100902.97
2022-08-26T03:04:35.355Z,100894.75
2022-08-26T03:09:37.237Z,100900.13
2022-08-26T03:14:39.127Z,100902.97
2022-08-26T03:19:40.947Z,100899.16
2022-08-26T03:24:46.046Z,100899.00
2022-08-26T03:30:07.078Z,100906.56
2022-08-26T03:35:09.698Z,100906.28
2022-08-26T03:40:12.051Z,100906.38
2022-08-26T03:45:16.546Z,100897.88
2022-08-26T03:50:22.628Z,100896.47
2022-08-26T03:55:27.000Z,100902.97
2022-08-26T04:00:29.195Z,100904.41
2022-08-26T04:05:30.951Z,100902.41
2022-08-26T04:10:32.959Z,100905.97
2022-08-26T04:15:34.908Z,100902.13
2022-08-26T04:20:36.725Z,100893.88
2022-08-26T04:25:40.792Z,100896.44
2022-08-26T04:30:42.695Z,100905.53
2022-08-26T04:35:45.458Z,100897.88
2022-08-26T04:40:49.740Z,100900.13
2022-08-26T04:45:51.786Z,100908.25
2022-08-26T04:50:54.616Z,100908.53
2022-08-26T04:55:56.607Z,100905.66
2022-08-26T05:00:58.696Z,100911.06
2022-08-26T05:06:05.356Z,100907.09
2022-08-26T05:11:07.804Z,100919.47
2022-08-26T05:16:13.302Z,100913.47
2022-08-26T05:21:21.194Z,100907.94
2022-08-26T05:26:24.971Z,100911.44
2022-08-26T05:31:33.075Z,100924.06
2022-08-26T05:36:36.987Z,100924.22
2022-08-26T05:41:41.882Z,100928.16
2022-08-26T05:46:44.923Z,100930.69
2022-08-26T05:51:47.623Z,100930.13
2022-08-26T05:56:53.691Z,100940.47
2022-08-26T06:01:55.466Z,100935.72
2022-08-26T06:06:58.193Z,100941.06
2022-08-26T06:12:02.076Z,100949.50
2022-08-26T06:17:05.254Z,100948.16
2022-08-26T06:22:27.150Z,100955.28
2022-08-26T06:27:32.781Z,100950.72
2022-08-26T06:32:35.115Z,100958.38
2022-08-26T06:37:37.277Z,100954.78
2022-08-26T06:42:39.262Z,100958.75
2022-08-26T06:47:41.404Z,100962.72
2022-08-26T06:52:43.319Z,100952.91
2022-08-26T06:57:45.262Z,100954.22
2022-08-26T07:02:47.884Z,100960.06
2022-08-26T07:07:50.543Z,100963.84
2022-08-26T07:12:52.666Z,100960.97
2022-08-26T07:17:55.113Z,100968.50
2022-08-26T07:22:59.091Z,100981.31
2022-08-26T07:28:00.904Z,100972.53
2022-08-26T07:33:05.500Z,100970.63
2022-08-26T07:38:11.144Z,100975.66
2022-08-26T07:43:13.074Z,100971.31
2022-08-26T07:48:14.908Z,100980.44
2022-08-26T07:53:18.002Z,100979.31
2022-08-26T07:58:20.090Z,100970.09
2022-08-26T08:03:21.982Z,100981.03
2022-08-26T08:08:27.593Z,100985.47
2022-08-26T08:13:31.185Z,100982.66
2022-08-26T08:18:33.802Z,100979.94
2022-08-26T08:23:36.134Z,100986.75
2022-08-26T08:28:39.976Z,100993.22
2022-08-26T08:33:43.297Z,100995.31
2022-08-26T08:38:45.267Z,100996.88
2022-08-26T08:43:48.095Z,100992.78
2022-08-26T08:49:00.018Z,100994.06
2022-08-26T08:54:03.122Z,101001.16
2022-08-26T08:59:12.989Z,101002.28
2022-08-26T09:04:33.363Z,100995.91
2022-08-26T09:09:39.471Z,100998.75
2022-08-26T09:14:41.630Z,101012.09
2022-08-26T09:19:51.427Z,101011.81
2022-08-26T09:24:57.600Z,101013.81
2022-08-26T09:30:00.864Z,101018.94
2022-08-26T09:35:10.130Z,101022.91
2022-08-26T09:40:35.039Z,101023.75
2022-08-26T09:45:39.017Z,101027.88
2022-08-26T09:50:54.270Z,101022.63
2022-08-26T09:56:24.142Z,101016.50
2022-08-26T10:01:44.775Z,101018.22
2022-08-26T10:07:02.516Z,101019.19
2022-08-26T10:12:08.678Z,101016.38
2022-08-26T10:17:42.311Z,101008.81
2022-08-26T10:23:04.523Z,101008.69
2022-08-26T10:28:37.787Z,101014.81
2022-08-26T10:33:46.495Z,101009.97
2022-08-26T10:38:52.953Z,101007.97
2022-08-26T10:43:59.508Z,101007.44
2022-08-26T10:49:06.708Z,101012.53
2022-08-26T10:54:15.931Z,101013.81
2022-08-26T10:59:55.393Z,101013.81
2022-08-26T11:05:07.169Z,101016.38
2022-08-26T11:10:42.852Z,101014.66
2022-08-26T11:15:53.806Z,101007.13
2022-08-26T11:20:55.672Z,101002.16
2022-08-26T11:26:09.192Z,101001.75
2022-08-26T11:31:26.829Z,101009.00
2022-08-26T11:36:37.959Z,101007.00
2022-08-26T11:41:44.463Z,101000.75
2022-08-26T11:46:54.344Z,100997.47
2022-08-26T11:52:21.021Z,100986.25
2022-08-26T11:57:23.550Z,101000.91
2022-08-26T12:02:27.239Z,101004.56
2022-08-26T12:07:34.605Z,101014.38
2022-08-26T12:12:39.349Z,101015.53
2022-08-26T12:17:42.476Z,101028.47
2022-08-26T12:22:48.076Z,101026.63
2022-08-26T12:27:53.714Z,101020.63
2022-08-26T12:33:22.979Z,101021.22
2022-08-26T12:38:27.608Z,101026.88
2022-08-26T12:43:44.623Z,101030.59
2022-08-26T12:48:49.242Z,101043.09
2022-08-26T12:53:51.784Z,101033.28
2022-08-26T12:59:27.463Z,101033.53
2022-08-26T13:04:40.150Z,101027.75
2022-08-26T13:09:42.028Z,101025.91
2022-08-26T13:14:45.016Z,101027.03
2022-08-26T13:19:46.956Z,101013.84
2022-08-26T13:24:48.872Z,101007.84
2022-08-26T13:29:51.989Z,101008.44
2022-08-26T13:34:55.307Z,101007.72
2022-08-26T13:39:57.150Z,101006.88
2022-08-26T13:45:00.065Z,101010.44
2022-08-26T13:50:01.995Z,101009.59
2022-08-26T13:55:05.225Z,101001.75
2022-08-26T14:00:10.953Z,101006.16
2022-08-26T14:05:13.567Z,101009.84
2022-08-26T14:10:15.965Z,101009.59
2022-08-26T14:15:18.974Z,100997.78
2022-08-26T14:20:25.905Z,100985.53
2022-08-26T14:25:27.724Z,100993.75
2022-08-26T14:30:29.537Z,100989.25
2022-08-26T14:35:31.625Z,100985.41
2022-08-26T14:40:37.684Z,100983.69
2022-08-26T14:51:05.780Z,100983.69
2022-08-26T14:56:07.773Z,100985.97
2022-08-26T15:01:09.880Z,100981.69
2022-08-26T15:06:14.289Z,100977.44
2022-08-26T15:11:18.572Z,100973.75
2022-08-26T15:16:21.036Z,100979.72
2022-08-26T15:21:24.332Z,100976.03
2022-08-26T15:26:26.833Z,100981.44
2022-08-26T15:31:31.678Z,100982.56
2022-08-26T15:36:37.589Z,100985.97
2022-08-26T15:41:39.464Z,100984.69
2022-08-26T15:46:42.325Z,100992.06
2022-08-26T15:51:45.791Z,100977.56
2022-08-26T15:56:50.859Z,100967.47
2022-08-26T16:01:52.776Z,100975.59
2022-08-26T16:06:55.197Z,100963.34
2022-08-26T16:11:57.778Z,100959.38
2022-08-26T16:16:59.753Z,100967.22
2022-08-26T16:22:01.994Z,100966.38
2022-08-26T16:27:04.152Z,100961.25
2022-08-26T16:32:09.199Z,100957.56
2022-08-26T16:37:14.248Z,100962.38
2022-08-26T16:42:16.203Z,100963.53
2022-08-26T16:47:18.685Z,100962.25
2022-08-26T16:52:20.607Z,100964.34
2022-08-26T16:57:23.227Z,100973.66
2022-08-26T17:02:25.211Z,100964.53
2022-08-26T17:07:27.255Z,100967.47
2022-08-26T17:12:29.172Z,100970.63
2022-08-26T17:17:31.138Z,100966.59
2022-08-26T17:22:34.732Z,100968.75
2022-08-26T17:27:36.956Z,100972.78
2022-08-26T17:32:38.986Z,100977.31
2022-08-26T17:37:41.179Z,100989.47
2022-08-26T17:42:43.494Z,100990.34
2022-08-26T17:47:45.446Z,100993.56
2022-08-26T17:52:47.314Z,100994.56
2022-08-26T17:57:53.636Z,100998.03
2022-08-26T18:03:01.466Z,101002.47
2022-08-26T18:08:04.648Z,101001.41
2022-08-26T18:13:06.787Z,101014.63
2022-08-26T18:18:08.903Z,101007.66
2022-08-26T18:23:12.399Z,100997.72
2022-08-26T18:28:14.445Z,101002.25
2022-08-26T18:33:16.379Z,100997.91
2022-08-26T18:38:18.486Z,100996.75
2022-08-26T18:43:21.508Z,101004.44
2022-08-26T18:48:23.812Z,101018.44
2022-08-26T18:53:26.829Z,101026.59
2022-08-26T18:58:28.667Z,101025.53
2022-08-26T19:03:30.548Z,101036.47
2022-08-26T19:08:32.482Z,101033.63
2022-08-26T19:13:35.008Z,101030.75
2022-08-26T19:18:37.038Z,101030.34
2022-08-26T19:23:39.659Z,101029.03
2022-08-26T19:28:42.048Z,101035.88
2022-08-26T19:33:45.369Z,101032.44
2022-08-26T19:38:47.875Z,101039.59
2022-08-26T19:43:50.041Z,101030.38
2022-08-26T19:48:55.697Z,101032.84
2022-08-26T19:54:00.341Z,101029.22
2022-08-26T19:59:02.242Z,101039.28
2022-08-26T20:04:04.394Z,101034.75
2022-08-26T20:09:06.360Z,101044.16
2022-08-26T20:14:12.700Z,101038.03
2022-08-26T20:19:37.348Z,101039.41
2022-08-26T20:24:40.243Z,101039.50
2022-08-26T20:29:43.371Z,101043.66
2022-08-26T20:34:45.187Z,101030.41
2022-08-26T20:39:48.306Z,101032.25
2022-08-26T20:44:54.346Z,101037.34
2022-08-26T20:49:56.900Z,101036.31
2022-08-26T20:54:58.676Z,101040.63
2022-08-26T21:00:01.274Z,101047.84
2022-08-26T21:05:03.966Z,101042.00
2022-08-26T21:10:06.186Z,101049.69
2022-08-26T21:15:08.696Z,101047.84
2022-08-26T21:20:12.007Z,101042.84
2022-08-26T21:25:13.980Z,101039.75
2022-08-26T21:30:16.856Z,101033.50
2022-08-26T21:35:18.650Z,101036.19
2022-08-26T21:40:20.691Z,101036.31
2022-08-26T21:45:22.644Z,101034.63
2022-08-26T21:50:24.638Z,101035.97
2022-08-26T21:55:26.621Z,101039.91
2022-08-26T22:00:28.466Z,101034.00
2022-08-26T22:05:30.490Z,101031.09
2022-08-26T22:10:32.238Z,101032.31
2022-08-26T22:15:35.661Z,101031.72
2022-08-26T22:20:37.560Z,101037.72
2022-08-26T22:25:39.418Z,101034.84
2022-08-26T22:30:43.223Z,101039.81
2022-08-26T22:35:47.701Z,101042.19
2022-08-26T22:40:55.517Z,101036.97
2022-08-26T22:45:57.656Z,101041.25
2022-08-26T22:51:00.353Z,101042.91
2022-08-26T22:56:02.628Z,101041.91
2022-08-26T23:01:07.797Z,101045.31
2022-08-26T23:06:10.816Z,101050.00
2022-08-26T23:11:13.847Z,101056.13
2022-08-26T23:16:15.747Z,101057.00
2022-08-26T23:21:17.682Z,101060.41
2022-08-26T23:26:20.236Z,101061.38
2022-08-26T23:31:22.189Z,101061.66
2022-08-26T23:36:24.036Z,101048.75
2022-08-26T23:41:28.253Z,101048.31
2022-08-26T23:46:30.633Z,101047.47
2022-08-26T23:51:51.332Z,101060.66
2022-08-26T23:56:53.345Z,101060.06
